CheckWX is a tool to help pilots better visualize weather data.  It is not intended as a substitute for an official pre-flight weather briefing.

17:31:07 UTC

GMMD METAR
Beni Mellal Airport
Morocco
Current

31 mins ago

GMMD 241700Z 04011KT 9999 BKN030TCU FEW033CB 19/11 Q1014 NOSIG
Observed
Mar-24 @ 17:00 UTC
Wind
  • 040° at 11 KTS
Visibility
10,000+ meters
Flight Rules
MVFR
Cloud Levels
  • Broken at 3,000' AGL
  • Few at 3,300' AGL
Temperature
19°C / 66°F
Dewpoint
11°C / 52°F
Humidity
60%
Altimeter
29.94" Hg
Pressure
1013.92 hPa
Previous

2 hours ago

GMMD 241600Z 04012T 9999 BKN030TCU FEW033CB 19/10 Q1014 NOSIG
Observed
Mar-24 @ 16:00 UTC
Visibility
10,000+ meters
Flight Rules
MVFR
Cloud Levels
  • Broken at 3,000' AGL
  • Few at 3,300' AGL
Temperature
19°C / 66°F
Dewpoint
10°C / 50°F
Humidity
56%
Altimeter
29.94" Hg
Pressure
1013.92 hPa
Previous

3 hours ago

GMMD 241500Z 02010KT 9999 BKN030TCU FEW033CB 18/08 Q1014 NOSIG
Observed
Mar-24 @ 15:00 UTC
Wind
  • 020° at 10 KTS
Visibility
10,000+ meters
Flight Rules
MVFR
Cloud Levels
  • Broken at 3,000' AGL
  • Few at 3,300' AGL
Temperature
18°C / 64°F
Dewpoint
C / 46°F
Humidity
52%
Altimeter
29.94" Hg
Pressure
1013.92 hPa